Portada
METAR-TAF:

METAR-TAF

Aeropuertos :

Berlin, Nuevo Hampshire, Estados Unidos

latitud: 44-34-34N, longitud: 071-10-43W, altitud: 353 m

Observación

El informe se hizo hace 9 minutos, a las 18:50 UTC
Viento 5 kt del sur-suroeste
Temperatura 19°C
Humedad 78%
Presión 1010 hPa
Visibilidad: 16.1 km
Nubes dispersas a una altura de 2200 ft
Nubes dispersas a una altura de 3700 ft
Cielo cubierto a una altura de 6000 ft

METAR: KBML 241850Z AUTO 21005KT 10SM SCT022 SCT037 OVC060 19/15 A2983 RMK AO2

Hora: 14:59 (18:59 UTC)


TAF: falta

Observaciones y pronósticos meteorológicos de más de 4000 aeropuertos (mensajes METAR y TAF).

Los puntos amarillos y rojos representan las estaciones disponibles.

Ponga el ratón en el punto deseado para ver el nombre de la estación.

Haga clic para ver las observaciones y los pronósticos meteorológicos.

Para cambiar el mapa : haga clic en los botones verdes con una cruz de color negro para hacer un zoom, en el botón verde con un guión para alejar o en las flechas verdes para mapas adyacentes.


METAR-TAF: